Time;durP1;ratioP1;P1;durP2;ratioP2;P2;SDS_P1;SDS_P2;PMS_P1;PMS_P2;Temp;Humidity;BMP_temperature;BMP_pressure;BME280_temperature;BME280_humidity;BME280_pressure;Samples;Min_cycle;Max_cycle;Signal;HPM_P1;HPM_P2
2023/01/17 00:01:43;;;;;;;3.72;1.20;;;;;;;2.05;100.00;98569.53;5024785;28;20759;-74
2023/01/17 00:09:52;;;;;;;11.25;1.35;;;;;;;2.28;100.00;98588.97;5019187;28;20469;-74
2023/01/17 00:12:20;;;;;;;8.55;1.40;;;;;;;2.25;100.00;98591.22;5020845;28;20544;-74
2023/01/17 00:14:46;;;;;;;4.47;1.17;;;;;;;2.28;100.00;98588.97;5022482;28;20108;-74
2023/01/17 00:17:12;;;;;;;5.85;0.90;;;;;;;2.19;100.00;98587.44;5022335;28;20096;-74
2023/01/17 01:34:05;;;;;;;3.60;1.23;;;;;;;1.99;100.00;98666.66;5021074;28;20088;-75
2023/01/17 01:36:30;;;;;;;7.28;1.30;;;;;;;1.96;100.00;98654.38;5019349;28;20034;-74
2023/01/17 01:38:56;;;;;;;9.20;1.77;;;;;;;1.96;100.00;98658.94;5018472;28;20025;-74
2023/01/17 01:41:22;;;;;;;3.80;1.40;;;;;;;1.83;100.00;98653.47;5022548;28;20068;-75
2023/01/17 01:43:53;;;;;;;11.40;2.33;;;;;;;1.76;100.00;98669.59;5027047;28;20432;-74
2023/01/17 01:46:31;;;;;;;5.80;1.40;;;;;;;1.67;100.00;98675.31;5023191;28;20053;-74
2023/01/17 01:49:01;;;;;;;5.85;1.00;;;;;;;1.62;100.00;98675.88;5024697;28;20120;-74
2023/01/17 01:51:50;;;;;;;9.35;1.02;;;;;;;1.51;100.00;98686.38;5026879;28;20021;-74
2023/01/17 01:54:24;;;;;;;6.13;1.23;;;;;;;1.46;100.00;98697.72;5030206;28;20033;-75
2023/01/17 01:56:52;;;;;;;5.88;1.15;;;;;;;1.43;100.00;98690.03;5021507;28;20053;-75
2023/01/17 01:59:19;;;;;;;1.83;0.98;;;;;;;1.37;100.00;98704.28;5030216;28;20033;-75
2023/01/17 02:01:50;;;;;;;6.15;1.13;;;;;;;1.32;100.00;98704.03;5021713;28;20033;-74
2023/01/17 02:04:17;;;;;;;8.25;1.30;;;;;;;1.27;100.00;98703.78;5028366;28;20060;-74
2023/01/17 02:06:47;;;;;;;8.32;1.70;;;;;;;1.19;100.00;98708.44;5019538;28;20557;-75
2023/01/17 02:09:15;;;;;;;7.65;1.30;;;;;;;1.19;100.00;98700.34;5002804;28;20034;-75
2023/01/17 02:11:43;;;;;;;3.80;1.50;;;;;;;1.14;100.00;98706.31;5028375;28;20017;-74
2023/01/17 02:14:14;;;;;;;7.97;1.30;;;;;;;1.05;100.00;98712.84;5018908;28;20450;-74
2023/01/17 02:17:01;;;;;;;4.63;1.55;;;;;;;1.11;100.00;98713.94;5022023;28;20035;-74
2023/01/17 02:19:53;;;;;;;9.93;1.70;;;;;;;1.10;100.00;98721.22;5020369;28;20045;-74
2023/01/17 02:22:44;;;;;;;8.43;1.45;;;;;;;1.09;100.00;98724.09;5024462;28;20029;-74
2023/01/17 02:25:40;;;;;;;7.30;1.67;;;;;;;1.18;100.00;98723.78;5021010;28;20056;-74
2023/01/17 02:28:38;;;;;;;5.00;1.10;;;;;;;1.07;100.00;98715.38;5024023;28;20025;-75
2023/01/17 02:31:21;;;;;;;4.90;1.13;;;;;;;1.08;100.00;98723.25;5027318;28;20029;-74
2023/01/17 02:33:58;;;;;;;6.28;1.20;;;;;;;1.03;100.00;98719.47;5020653;28;20037;-74
2023/01/17 02:36:35;;;;;;;7.47;1.50;;;;;;;1.00;100.00;98722.50;5025344;28;20035;-75
2023/01/17 02:39:20;;;;;;;9.32;1.60;;;;;;;1.03;100.00;98714.06;5023318;28;20524;-75
2023/01/17 02:42:01;;;;;;;4.75;1.35;;;;;;;1.00;100.00;98711.75;5026771;28;20025;-75
2023/01/17 02:44:26;;;;;;;5.55;1.20;;;;;;;1.02;100.00;98712.41;5027230;28;20449;-74
2023/01/17 02:46:55;;;;;;;4.45;1.10;;;;;;;1.04;100.00;98721.97;5023119;28;20033;-74
2023/01/17 02:49:25;;;;;;;7.00;1.13;;;;;;;1.27;100.00;98724.50;5021862;28;20543;-75
2023/01/17 02:51:53;;;;;;;4.85;1.33;;;;;;;1.28;100.00;98720.78;5025767;28;20030;-74
2023/01/17 02:54:21;;;;;;;7.65;1.30;;;;;;;1.40;100.00;98721.94;5021278;28;20400;-74
2023/01/17 02:57:21;;;;;;;3.65;0.93;;;;;;;1.27;100.00;98716.41;5027772;28;20167;-74
2023/01/17 02:59:58;;;;;;;3.90;0.90;;;;;;;1.17;100.00;98718.56;5018622;28;20529;-74
2023/01/17 03:02:45;;;;;;;9.38;1.73;;;;;;;1.13;100.00;98720.81;5020586;28;20034;-75
2023/01/17 03:05:22;;;;;;;7.22;1.00;;;;;;;1.10;100.00;98712.28;5025209;28;20034;-74
2023/01/17 03:07:49;;;;;;;;;;;;;;;1.10;100.00;98715.81;5022737;28;20033;-74
2023/01/17 03:10:16;;;;;;;3.28;1.10;;;;;;;1.07;100.00;98715.38;5025199;28;19925;-74
2023/01/17 03:12:42;;;;;;;5.68;1.27;;;;;;;1.10;100.00;98714.97;5018278;28;20081;-74
2023/01/17 03:15:14;;;;;;;9.25;1.30;;;;;;;1.14;100.00;98721.66;5026470;28;20192;-74
2023/01/17 03:17:47;;;;;;;4.82;1.90;;;;;;;1.10;100.00;98726.59;5022088;28;20400;-74
2023/01/17 03:20:12;;;;;;;12.38;1.38;;;;;;;1.23;100.00;98728.63;5021666;28;20137;-74
2023/01/17 03:22:38;;;;;;;14.15;2.40;;;;;;;1.20;100.00;98732.53;5022489;28;20477;-75
2023/01/17 03:25:04;;;;;;;15.65;1.90;;;;;;;1.17;100.00;98740.97;5015109;28;20045;-74
2023/01/17 03:27:30;;;;;;;7.35;1.13;;;;;;;1.19;100.00;98740.78;5019345;28;20049;-74
2023/01/17 03:29:56;;;;;;;12.98;1.70;;;;;;;1.18;100.00;98739.13;5015742;28;20080;-74
2023/01/17 03:32:21;;;;;;;5.47;1.33;;;;;;;1.11;100.00;98741.75;5023366;28;20419;-75
2023/01/17 03:34:47;;;;;;;11.07;1.08;;;;;;;1.12;100.00;98739.91;5021432;28;20499;-74
2023/01/17 03:37:12;;;;;;;7.53;1.40;;;;;;;1.11;100.00;98743.59;5017759;28;20496;-74
2023/01/17 03:39:38;;;;;;;11.10;1.10;;;;;;;1.06;100.00;98737.94;5017016;28;20043;-75
2023/01/17 03:42:04;;;;;;;9.32;1.73;;;;;;;0.97;100.00;98736.38;5027257;28;20076;-74
2023/01/17 03:44:30;;;;;;;9.85;1.33;;;;;;;0.91;100.00;98732.56;5019352;28;20034;-74
2023/01/17 03:46:55;;;;;;;7.25;1.20;;;;;;;0.82;100.00;98728.31;5022333;28;20117;-74
2023/01/17 03:49:22;;;;;;;8.45;1.63;;;;;;;0.79;100.00;98744.00;5022157;28;20026;-75
2023/01/17 03:51:47;;;;;;;6.65;1.63;;;;;;;0.71;100.00;98733.34;5017711;28;20076;-74
2023/01/17 03:54:13;;;;;;;4.40;1.35;;;;;;;0.64;100.00;98745.91;5018613;28;20562;-74
2023/01/17 03:56:38;;;;;;;9.00;1.30;;;;;;;0.58;100.00;98739.38;5020437;28;20103;-74
2023/01/17 03:59:03;;;;;;;6.38;1.52;;;;;;;0.56;100.00;98743.28;4983100;28;1133745;-74
2023/01/17 04:01:29;;;;;;;1.60;0.90;;;;;;;0.54;100.00;98739.97;5022430;28;20076;-75
2023/01/17 04:03:55;;;;;;;4.82;1.17;;;;;;;0.48;100.00;98744.22;5022299;28;20519;-74
2023/01/17 04:06:20;;;;;;;8.50;1.90;;;;;;;0.45;100.00;98747.28;5021799;28;20072;-75
2023/01/17 04:08:47;;;;;;;5.20;1.10;;;;;;;0.39;100.00;98749.88;5004379;28;20029;-74
2023/01/17 04:11:12;;;;;;;7.43;1.33;;;;;;;0.35;100.00;98751.25;5024505;28;20029;-74
2023/01/17 04:13:39;;;;;;;8.00;1.30;;;;;;;0.33;100.00;98754.13;5020824;28;20045;-75
2023/01/17 04:16:07;;;;;;;10.40;1.33;;;;;;;0.33;100.00;98758.69;5019081;28;20401;-74
2023/01/17 04:18:32;;;;;;;7.25;1.38;;;;;;;0.25;100.00;98756.06;5021053;28;20035;-75
2023/01/17 04:20:57;;;;;;;5.43;1.40;;;;;;;0.23;100.00;98758.13;5025315;28;20026;-74
2023/01/17 04:23:23;;;;;;;10.15;1.08;;;;;;;0.15;100.00;98760.88;5025750;28;20053;-75
2023/01/17 04:25:48;;;;;;;10.07;1.33;;;;;;;0.15;100.00;98758.19;5030292;28;20124;-74
2023/01/17 04:28:13;;;;;;;3.33;1.40;;;;;;;0.16;100.00;98760.69;5024018;28;20025;-74
2023/01/17 04:30:39;;;;;;;13.10;1.38;;;;;;;0.24;100.00;98765.16;5024326;28;20445;-75
2023/01/17 04:33:05;;;;;;;6.55;1.40;;;;;;;0.27;100.00;98760.25;5027433;28;20124;-75
2023/01/17 04:35:32;;;;;;;5.93;1.17;;;;;;;0.35;100.00;98768.25;5024299;28;20026;-76
2023/01/17 04:37:57;;;;;;;4.53;1.60;;;;;;;0.33;100.00;98756.00;5018147;28;20117;-74
2023/01/17 04:40:23;;;;;;;7.55;1.77;;;;;;;0.34;100.00;98760.34;5019082;28;20096;-76
2023/01/17 04:42:50;;;;;;;17.70;2.28;;;;;;;0.31;100.00;98758.03;5018444;28;20033;-74
2023/01/17 04:45:15;;;;;;;11.57;1.80;;;;;;;0.37;100.00;98749.19;5019065;28;20029;-74
2023/01/17 04:47:41;;;;;;;7.47;1.70;;;;;;;0.41;100.00;98750.53;5024292;28;20033;-75
2023/01/17 04:50:08;;;;;;;10.57;1.95;;;;;;;0.52;100.00;98763.53;5025660;28;20358;-75
2023/01/17 04:52:33;;;;;;;14.48;1.60;;;;;;;0.55;100.00;98757.78;5019720;28;20057;-74
2023/01/17 04:54:59;;;;;;;10.65;1.50;;;;;;;0.54;100.00;98762.31;5016858;28;20109;-74
2023/01/17 04:57:24;;;;;;;8.38;1.63;;;;;;;0.57;100.00;98761.97;5025576;28;20555;-75
2023/01/17 04:59:52;;;;;;;10.40;1.92;;;;;;;0.66;100.00;98760.81;5021627;28;20048;-74
2023/01/17 05:02:17;;;;;;;7.80;1.90;;;;;;;0.63;100.00;98763.91;5021217;28;20100;-74
2023/01/17 05:04:43;;;;;;;7.65;1.42;;;;;;;0.71;100.00;98771.06;5020032;28;20108;-74
2023/01/17 05:07:08;;;;;;;14.27;2.55;;;;;;;0.76;100.00;98766.78;5018299;28;20041;-75
2023/01/17 05:09:33;;;;;;;9.52;1.30;;;;;;;0.95;100.00;98765.38;5018730;28;21020;-74
2023/01/17 05:11:59;;;;;;;14.90;2.10;;;;;;;0.99;100.00;98772.91;5021778;28;20068;-75
2023/01/17 05:14:25;;;;;;;8.77;1.58;;;;;;;1.14;100.00;98762.09;5013507;28;20038;-75
2023/01/17 05:16:57;;;;;;;14.63;1.70;;;;;;;1.40;100.00;98771.31;5020968;28;20088;-74
2023/01/17 05:19:24;;;;;;;15.82;1.92;;;;;;;1.36;100.00;98771.91;5022711;28;20029;-74
2023/01/17 05:21:49;;;;;;;14.07;1.55;;;;;;;1.38;100.00;98781.47;5022038;28;20046;-74
2023/01/17 05:24:15;;;;;;;5.22;1.25;;;;;;;1.33;100.00;98781.19;5021920;28;20041;-74
2023/01/17 05:26:41;;;;;;;10.27;2.05;;;;;;;1.28;100.00;98782.81;5003471;28;20033;-73
2023/01/17 05:29:09;;;;;;;10.20;1.50;;;;;;;1.28;100.00;98780.09;5020392;28;20061;-74
2023/01/17 05:31:35;;;;;;;12.38;1.42;;;;;;;1.21;100.00;98787.25;5018689;28;20146;-74
2023/01/17 05:34:00;;;;;;;12.57;1.55;;;;;;;1.05;100.00;98784.78;5023798;28;20068;-74
2023/01/17 05:36:27;;;;;;;10.90;1.50;;;;;;;0.96;100.00;98794.00;5018675;28;20767;-74
2023/01/17 05:38:52;;;;;;;6.82;1.42;;;;;;;0.87;100.00;98795.13;5017902;28;20392;-74
2023/01/17 05:41:17;;;;;;;13.65;1.80;;;;;;;0.88;100.00;98792.25;5020664;28;20052;-75
2023/01/17 05:43:43;;;;;;;7.60;1.73;;;;;;;0.77;100.00;98795.41;5017420;28;20029;-74
2023/01/17 05:46:08;;;;;;;13.52;1.90;;;;;;;0.73;100.00;98798.63;5019610;28;20475;-74
2023/01/17 05:48:34;;;;;;;8.38;2.03;;;;;;;0.66;100.00;98793.16;5014101;28;20044;-75
2023/01/17 05:51:00;;;;;;;9.25;1.80;;;;;;;0.63;100.00;98798.06;5019107;28;20095;-75
2023/01/17 05:53:25;;;;;;;10.48;1.60;;;;;;;0.59;100.00;98797.59;5022445;28;20030;-75
2023/01/17 05:55:51;;;;;;;8.75;1.48;;;;;;;0.57;100.00;98812.28;5021153;28;20447;-74
2023/01/17 05:58:19;;;;;;;13.95;1.92;;;;;;;0.53;100.00;98802.88;5020209;28;20514;-73
2023/01/17 06:00:45;;;;;;;5.30;1.60;;;;;;;0.54;100.00;98801.91;5016847;28;20029;-74
2023/01/17 06:03:11;;;;;;;7.55;2.30;;;;;;;0.53;100.00;98803.72;5020303;28;20504;-74
2023/01/17 06:05:36;;;;;;;5.05;1.50;;;;;;;0.52;100.00;98803.91;5024214;28;20112;-75
2023/01/17 06:08:03;;;;;;;13.20;2.50;;;;;;;0.63;100.00;98815.09;5021539;28;20104;-77
2023/01/17 06:10:30;;;;;;;5.93;1.65;;;;;;;0.59;100.00;98812.94;5020366;28;20503;-74
2023/01/17 06:13:11;;;;;;;8.95;2.10;;;;;;;0.56;100.00;98818.69;5021400;28;20048;-74
2023/01/17 06:15:37;;;;;;;9.65;1.70;;;;;;;0.60;100.00;98809.22;5018262;28;20032;-76
2023/01/17 06:18:07;;;;;;;9.38;2.30;;;;;;;0.60;100.00;98820.81;5022564;28;20493;-74
2023/01/17 06:20:33;;;;;;;8.50;1.75;;;;;;;0.52;100.00;98812.84;5019568;28;20033;-74
2023/01/17 06:23:01;;;;;;;16.00;2.28;;;;;;;0.48;100.00;98816.09;5028542;28;20040;-74
2023/01/17 06:25:26;;;;;;;12.43;2.20;;;;;;;0.40;100.00;98810.78;5023412;28;20105;-74
2023/01/17 06:27:54;;;;;;;10.85;1.92;;;;;;;0.29;100.00;98812.06;5024135;28;20454;-74
2023/01/17 06:30:19;;;;;;;4.97;1.50;;;;;;;0.28;100.00;98809.56;5024312;28;20386;-75
2023/01/17 06:32:51;;;;;;;10.32;1.92;;;;;;;0.31;100.00;98811.84;5021999;28;20021;-74
2023/01/17 06:35:17;;;;;;;7.25;1.88;;;;;;;0.26;100.00;98801.66;5029787;28;20024;-74
2023/01/17 06:37:42;;;;;;;5.32;1.63;;;;;;;0.26;100.00;98803.50;5023351;28;20033;-74
2023/01/17 06:40:08;;;;;;;8.35;2.13;;;;;;;0.24;100.00;98801.00;5031170;28;20057;-74
2023/01/17 06:42:34;;;;;;;14.23;1.95;;;;;;;0.26;100.00;98807.03;5021897;28;20082;-74
2023/01/17 06:44:59;;;;;;;11.82;2.08;;;;;;;0.21;100.00;98803.19;5009535;28;20504;-75
2023/01/17 06:47:25;;;;;;;7.70;2.40;;;;;;;0.20;100.00;98794.31;5024442;28;20026;-75
2023/01/17 06:49:50;;;;;;;10.25;3.15;;;;;;;0.19;100.00;98802.56;5015819;28;20738;-75
2023/01/17 06:52:17;;;;;;;9.93;2.60;;;;;;;0.18;100.00;98807.09;5023315;28;20037;-74
2023/01/17 06:54:42;;;;;;;12.27;3.40;;;;;;;0.13;100.00;98805.97;5024217;28;20059;-74
2023/01/17 06:57:08;;;;;;;16.77;4.05;;;;;;;0.10;100.00;98801.81;5024379;28;20393;-74
2023/01/17 06:59:33;;;;;;;16.10;3.63;;;;;;;0.10;100.00;98806.34;5024940;28;20025;-76
2023/01/17 07:01:59;;;;;;;12.80;3.97;;;;;;;0.03;100.00;98811.63;5025393;28;20037;-74
2023/01/17 07:04:24;;;;;;;14.88;4.88;;;;;;;-0.01;100.00;98807.63;5026637;28;20044;-75
2023/01/17 07:06:49;;;;;;;12.10;2.55;;;;;;;0.04;100.00;98812.44;5028422;28;20021;-75
2023/01/17 07:09:15;;;;;;;16.08;3.20;;;;;;;0.00;100.00;98806.59;5021771;28;20470;-75
2023/01/17 07:11:40;;;;;;;10.70;2.83;;;;;;;-0.07;100.00;98805.66;5023306;28;20495;-75
2023/01/17 07:14:11;;;;;;;6.72;2.97;;;;;;;-0.12;100.00;98815.25;5026113;28;20037;-75
2023/01/17 07:16:36;;;;;;;7.18;2.55;;;;;;;-0.18;100.00;98812.47;5022235;28;20390;-75
2023/01/17 07:19:02;;;;;;;8.93;2.25;;;;;;;-0.22;100.00;98818.19;5026409;28;20041;-75
2023/01/17 07:21:27;;;;;;;8.23;2.20;;;;;;;-0.20;100.00;98823.41;5021233;28;20088;-76
2023/01/17 07:23:53;;;;;;;8.40;2.60;;;;;;;-0.21;100.00;98827.13;5027148;28;20044;-75
2023/01/17 07:26:18;;;;;;;12.32;2.45;;;;;;;-0.23;100.00;98826.44;5024220;28;20029;-74
2023/01/17 07:28:44;;;;;;;5.80;2.00;;;;;;;-0.15;100.00;98834.47;5024221;28;20488;-74
2023/01/17 07:31:09;;;;;;;5.90;2.88;;;;;;;-0.14;100.00;98831.56;5022286;28;20144;-75
2023/01/17 07:33:34;;;;;;;9.40;1.98;;;;;;;-0.15;100.00;98837.16;5020279;28;20447;-75
2023/01/17 07:36:07;;;;;;;4.97;1.75;;;;;;;-0.16;100.00;98838.19;5021835;28;20025;-74
2023/01/17 07:38:32;;;;;;;10.73;2.00;;;;;;;-0.18;100.00;98839.38;5026425;28;20071;-75
2023/01/17 07:40:59;;;;;;;9.80;2.47;;;;;;;-0.17;100.00;98842.72;5019094;28;20037;-75
2023/01/17 07:43:24;;;;;;;11.02;2.25;;;;;;;-0.14;100.00;98846.91;5026602;28;20022;-74
2023/01/17 07:45:50;;;;;;;6.45;2.40;;;;;;;-0.08;100.00;98852.41;5023645;28;20508;-76
2023/01/17 07:48:17;;;;;;;6.32;1.77;;;;;;;0.00;100.00;98846.94;5022010;28;20021;-75
2023/01/17 07:50:43;;;;;;;;;;;;;;;0.03;100.00;98851.13;5028372;28;20492;-74
2023/01/17 07:53:09;;;;;;;10.95;3.42;;;;;;;0.11;100.00;98849.22;5028392;28;19944;-75
2023/01/17 07:55:34;;;;;;;11.00;2.77;;;;;;;0.07;100.00;98849.75;5026180;28;20437;-75
2023/01/17 07:58:00;;;;;;;11.05;2.15;;;;;;;0.14;100.00;98856.09;5022732;28;20302;-74
2023/01/17 08:00:26;;;;;;;11.73;2.30;;;;;;;0.13;100.00;98857.13;5027414;28;20033;-76
2023/01/17 08:02:59;;;;;;;5.40;1.77;;;;;;;0.19;100.00;98859.94;5022383;28;20025;-74
2023/01/17 08:05:26;;;;;;;12.50;2.90;;;;;;;0.16;100.00;98868.34;5023738;28;20167;-75
2023/01/17 08:07:52;;;;;;;12.48;2.42;;;;;;;0.09;100.00;98856.63;5024253;28;20477;-74
2023/01/17 08:10:18;;;;;;;8.18;2.30;;;;;;;0.10;100.00;98854.75;5023707;28;20079;-75
2023/01/17 08:12:48;;;;;;;9.23;2.15;;;;;;;0.10;100.00;98849.38;5019272;28;20033;-74
2023/01/17 08:15:17;;;;;;;5.85;2.00;;;;;;;0.10;100.00;98849.38;5024284;28;20034;-74
2023/01/17 08:17:52;;;;;;;11.20;2.70;;;;;;;0.08;100.00;98849.59;5022853;28;20029;-74
2023/01/17 08:20:19;;;;;;;8.98;4.25;;;;;;;0.02;100.00;98849.47;5023631;28;20029;-74
2023/01/17 08:22:44;;;;;;;10.25;2.97;;;;;;;0.03;100.00;98853.81;5020539;28;20491;-75
2023/01/17 08:25:11;;;;;;;7.28;3.35;;;;;;;0.03;100.00;98848.44;5026715;28;20121;-74
2023/01/17 08:27:37;;;;;;;8.38;3.28;;;;;;;0.02;100.00;98857.53;5024648;28;20022;-76
2023/01/17 08:30:04;;;;;;;14.88;2.80;;;;;;;-0.02;100.00;98850.84;5023943;28;20176;-74
2023/01/17 08:32:29;;;;;;;10.55;3.70;;;;;;;0.05;100.00;98851.78;5019378;28;20052;-75
2023/01/17 08:34:56;;;;;;;10.73;3.03;;;;;;;0.07;100.00;98855.16;5022034;28;20029;-77
2023/01/17 08:37:21;;;;;;;11.10;3.72;;;;;;;0.06;100.00;98853.47;5020874;28;20033;-74
2023/01/17 08:39:46;;;;;;;16.27;3.28;;;;;;;0.02;100.00;98860.22;5018732;28;20095;-75
2023/01/17 08:42:12;;;;;;;5.88;2.95;;;;;;;0.00;100.00;98867.66;5025545;28;20125;-74
2023/01/17 08:44:38;;;;;;;10.77;3.08;;;;;;;-0.01;100.00;98865.94;5026027;28;20032;-75
2023/01/17 08:47:04;;;;;;;7.57;3.35;;;;;;;-0.02;100.00;98869.66;5024602;28;20052;-74
2023/01/17 08:49:29;;;;;;;9.90;3.10;;;;;;;-0.01;100.00;98863.25;5027170;28;20029;-75
2023/01/17 08:51:55;;;;;;;8.30;3.25;;;;;;;0.03;100.00;98870.81;5021311;28;20064;-75
2023/01/17 08:54:21;;;;;;;12.48;3.40;;;;;;;0.04;100.00;98866.25;5020814;28;20117;-75
2023/01/17 08:56:47;;;;;;;11.63;4.05;;;;;;;0.16;100.00;98872.91;5021287;28;20110;-75
2023/01/17 08:59:13;;;;;;;11.80;4.53;;;;;;;0.23;100.00;98868.47;5020614;28;20497;-77
2023/01/17 09:01:44;;;;;;;7.85;3.60;;;;;;;0.30;100.00;98877.50;5025238;28;20029;-76
2023/01/17 09:04:14;;;;;;;11.05;3.85;;;;;;;0.38;100.00;98872.06;5022131;28;20787;-77
2023/01/17 09:06:41;;;;;;;10.70;3.38;;;;;;;0.43;100.00;98877.72;5026950;28;20454;-75
2023/01/17 09:09:07;;;;;;;7.93;3.53;;;;;;;0.42;100.00;98871.50;5014250;28;20080;-76
2023/01/17 09:11:33;;;;;;;6.25;3.58;;;;;;;0.45;100.00;98868.47;5017601;28;20041;-78
2023/01/17 09:14:00;;;;;;;9.07;3.42;;;;;;;0.49;100.00;98864.34;5027284;28;20086;-77
2023/01/17 09:16:26;;;;;;;11.85;3.72;;;;;;;0.56;100.00;98862.63;5020082;28;20026;-77
2023/01/17 09:18:56;;;;;;;15.00;4.17;;;;;;;0.61;100.00;98870.16;5025671;28;20025;-76
2023/01/17 09:21:22;;;;;;;6.32;3.95;;;;;;;0.67;100.00;98864.88;5028002;28;20446;-77
2023/01/17 09:23:48;;;;;;;12.00;4.00;;;;;;;0.73;100.00;98865.97;5025837;28;20041;-76
2023/01/17 09:26:22;;;;;;;14.55;4.20;;;;;;;0.76;100.00;98866.44;5020842;28;20170;-76
2023/01/17 09:28:48;;;;;;;12.60;4.57;;;;;;;0.78;100.00;98874.34;5019422;28;20425;-77
2023/01/17 09:31:15;;;;;;;13.13;4.18;;;;;;;0.80;100.00;98875.84;5025359;28;20060;-76
2023/01/17 09:33:41;;;;;;;10.10;4.35;;;;;;;0.85;100.00;98875.28;5023774;28;20029;-77
2023/01/17 09:36:10;;;;;;;13.55;4.60;;;;;;;0.89;100.00;98884.66;5025646;28;20389;-77
2023/01/17 09:38:36;;;;;;;9.35;3.97;;;;;;;0.97;100.00;98887.28;5021174;28;20501;-76
2023/01/17 09:41:02;;;;;;;15.73;4.53;;;;;;;1.08;100.00;98889.53;5020458;28;20112;-77
2023/01/17 09:43:46;;;;;;;11.57;4.93;;;;;;;1.15;100.00;98885.91;5021687;28;20484;-76
2023/01/17 09:46:24;;;;;;;10.40;4.60;;;;;;;1.17;100.00;98880.31;5024635;28;20283;-76
2023/01/17 09:49:08;;;;;;;12.40;5.03;;;;;;;1.30;100.00;98894.00;5022608;28;20067;-76
2023/01/17 09:51:34;;;;;;;15.38;4.85;;;;;;;1.35;100.00;98902.34;5015493;28;20057;-75
2023/01/17 09:54:01;;;;;;;11.68;5.00;;;;;;;1.41;100.00;98899.75;5022252;28;20060;-76
2023/01/17 09:56:41;;;;;;;12.10;4.90;;;;;;;1.41;100.00;98901.59;5020800;28;20037;-76
2023/01/17 09:59:27;;;;;;;22.48;8.18;;;;;;;1.53;100.00;98905.50;5016963;28;20041;-75
2023/01/17 10:02:36;;;;;;;9.60;5.53;;;;;;;1.61;100.00;98900.00;5019775;28;20489;-75
2023/01/17 10:05:15;;;;;;;15.38;5.88;;;;;;;1.67;100.00;98910.03;5028814;28;20040;-76
2023/01/17 10:07:52;;;;;;;12.15;5.78;;;;;;;1.71;100.00;98908.66;5013764;28;20079;-74
2023/01/17 10:10:33;;;;;;;15.50;5.57;;;;;;;1.74;100.00;98913.66;5022443;28;20599;-74
2023/01/17 10:13:25;;;;;;;21.08;5.97;;;;;;;1.72;100.00;98908.44;5024816;28;20128;-77
2023/01/17 10:16:18;;;;;;;15.65;5.57;;;;;;;1.75;100.00;98905.38;5025238;28;20021;-74
2023/01/17 10:19:02;;;;;;;16.50;6.50;;;;;;;1.82;100.00;98917.06;5025295;28;20558;-75
2023/01/17 10:21:48;;;;;;;18.33;5.93;;;;;;;1.92;100.00;98914.09;5024622;28;20029;-75
2023/01/17 10:24:22;;;;;;;18.67;5.93;;;;;;;1.91;100.00;98915.09;5029154;28;20036;-74
2023/01/17 10:26:52;;;;;;;9.55;5.63;;;;;;;2.02;100.00;98917.31;5022560;28;20041;-75
2023/01/17 10:29:19;;;;;;;11.00;5.65;;;;;;;2.18;100.00;98908.97;5025824;28;20026;-74
2023/01/17 10:31:50;;;;;;;;;;;;;;;2.38;100.00;98912.72;5023163;28;20034;-75
2023/01/17 10:34:24;;;;;;;13.30;5.97;;;;;;;2.47;100.00;98911.56;5024966;28;19913;-75
2023/01/17 10:37:00;;;;;;;20.13;6.00;;;;;;;2.58;100.00;98913.75;5025264;28;20432;-74
2023/01/17 10:39:29;;;;;;;10.95;5.90;;;;;;;2.52;100.00;98915.34;5021278;28;20068;-75
2023/01/17 10:41:59;;;;;;;12.68;5.35;;;;;;;2.62;100.00;98921.25;5021674;28;20069;-74
2023/01/17 10:44:30;;;;;;;16.35;5.28;;;;;;;2.68;100.00;98916.94;5022505;28;20025;-75
2023/01/17 10:47:19;;;;;;;18.13;4.93;;;;;;;2.64;100.00;98918.38;5024761;28;20045;-75
2023/01/17 10:49:47;;;;;;;16.42;5.30;;;;;;;2.58;99.55;98924.53;5021121;28;20121;-74
2023/01/17 10:52:51;;;;;;;10.95;4.40;;;;;;;2.53;100.00;98913.47;5020798;28;20546;-75
2023/01/17 10:55:31;;;;;;;13.73;4.75;;;;;;;2.54;99.55;98921.41;5026634;28;20017;-75
2023/01/17 10:57:57;;;;;;;9.75;4.90;;;;;;;2.56;99.35;98919.31;5021637;28;20045;-74
2023/01/17 11:00:42;;;;;;;9.05;5.05;;;;;;;2.53;100.00;98919.72;5020065;28;20311;-74
2023/01/17 11:03:10;;;;;;;9.50;4.65;;;;;;;2.65;100.00;98912.78;5022272;28;20485;-75
2023/01/17 11:05:36;;;;;;;10.73;5.20;;;;;;;2.79;98.82;98911.84;5023829;28;20033;-75
2023/01/17 11:08:07;;;;;;;10.00;4.45;;;;;;;2.78;99.43;98912.06;5024881;28;20025;-74
2023/01/17 11:10:38;;;;;;;14.90;4.60;;;;;;;2.77;99.20;98916.59;5024543;28;20412;-74
2023/01/17 11:13:30;;;;;;;9.73;4.75;;;;;;;2.69;100.00;98916.75;5022898;28;20496;-74
2023/01/17 11:16:02;;;;;;;17.65;4.53;;;;;;;2.86;97.74;98912.75;5018562;28;20113;-75
2023/01/17 11:18:38;;;;;;;11.63;5.40;;;;;;;3.00;97.29;98914.50;5020862;28;20026;-75
2023/01/17 11:21:19;;;;;;;12.27;5.47;;;;;;;3.15;97.49;98907.13;5020214;28;20359;-74
2023/01/17 11:23:48;;;;;;;15.55;5.47;;;;;;;3.29;96.77;98908.88;5021026;28;20509;-74
2023/01/17 11:26:24;;;;;;;14.48;4.97;;;;;;;3.42;94.99;98908.13;5027311;28;20021;-75
2023/01/17 11:28:53;;;;;;;17.47;5.27;;;;;;;3.59;94.22;98910.28;5019385;28;20064;-75
2023/01/17 11:31:18;;;;;;;11.23;4.53;;;;;;;3.66;92.93;98908.47;5023185;28;20258;-74
2023/01/17 11:34:04;;;;;;;9.18;4.00;;;;;;;3.79;93.35;98911.22;5023111;28;20458;-75
2023/01/17 11:36:30;;;;;;;9.70;4.10;;;;;;;3.84;91.45;98903.34;5019745;28;20029;-76
2023/01/17 11:39:01;;;;;;;10.90;4.50;;;;;;;3.77;90.08;98912.47;5029797;28;20029;-75
2023/01/17 11:41:35;;;;;;;9.65;4.30;;;;;;;3.80;89.66;98903.94;5020821;28;20061;-75
2023/01/17 11:44:17;;;;;;;10.10;3.78;;;;;;;3.87;90.62;98908.38;5022557;28;20485;-75
2023/01/17 11:46:42;;;;;;;6.32;2.90;;;;;;;3.88;85.73;98901.91;5024190;28;20358;-74
2023/01/17 11:49:22;;;;;;;7.80;2.28;;;;;;;3.91;82.77;98903.38;5021646;28;20025;-75
2023/01/17 11:51:48;;;;;;;6.43;2.25;;;;;;;4.04;86.16;98908.81;5019909;28;20030;-75
2023/01/17 11:54:13;;;;;;;2.90;2.33;;;;;;;4.15;82.30;98900.09;5023976;28;20056;-76
2023/01/17 11:56:42;;;;;;;6.18;2.60;;;;;;;4.16;81.56;98896.38;5028617;28;20041;-76
2023/01/17 11:59:17;;;;;;;7.00;2.20;;;;;;;4.25;83.38;98895.13;5023868;28;20053;-76
2023/01/17 12:01:54;;;;;;;8.02;2.30;;;;;;;4.35;79.40;98901.00;5029460;28;20064;-76
2023/01/17 12:04:29;;;;;;;5.38;2.53;;;;;;;4.48;81.02;98896.44;5033813;28;20124;-76
2023/01/17 12:07:29;;;;;;;8.32;2.50;;;;;;;4.46;78.92;98890.38;5023005;28;20037;-76
2023/01/17 12:10:09;;;;;;;5.53;2.88;;;;;;;4.34;80.43;98885.78;5017279;28;20104;-76
2023/01/17 12:15:45;;;;;;;4.38;1.98;;;;;;;4.33;79.73;98884.13;5018289;28;20072;-76
2023/01/17 12:18:30;;;;;;;10.55;2.42;;;;;;;4.42;78.50;98882.84;5018288;28;20033;-77
2023/01/17 12:21:11;;;;;;;2.22;1.73;;;;;;;4.37;77.80;98877.22;5024829;28;20075;-76
2023/01/17 12:24:11;;;;;;;3.80;1.92;;;;;;;4.49;77.43;98881.00;5021549;28;20041;-77
2023/01/17 12:26:40;;;;;;;5.03;2.25;;;;;;;4.50;76.51;98871.84;5024444;28;20030;-77
2023/01/17 12:29:24;;;;;;;2.33;1.25;;;;;;;4.41;78.71;98867.66;5022974;28;20493;-76
2023/01/17 12:32:14;;;;;;;5.03;1.50;;;;;;;4.48;75.17;98866.63;5017842;28;20540;-76
2023/01/17 12:34:50;;;;;;;1.90;1.65;;;;;;;4.45;78.35;98866.19;5023746;28;20114;-76
2023/01/17 12:37:51;;;;;;;5.82;1.75;;;;;;;4.50;78.43;98861.00;5025848;28;20365;-75
2023/01/17 12:40:29;;;;;;;8.95;2.10;;;;;;;4.61;77.79;98868.50;5011677;28;20504;-75
2023/01/17 12:43:03;;;;;;;10.48;1.80;;;;;;;4.68;75.87;98866.63;5016775;28;20290;-77
2023/01/17 12:45:38;;;;;;;4.03;1.80;;;;;;;4.67;78.94;98859.53;5023709;28;20041;-77
2023/01/17 12:48:12;;;;;;;5.07;2.20;;;;;;;4.63;76.52;98860.97;5019285;28;20032;-77
2023/01/17 12:50:43;;;;;;;3.67;1.83;;;;;;;4.50;75.58;98871.84;5025141;28;20028;-76
2023/01/17 12:53:46;;;;;;;5.10;1.65;;;;;;;4.34;78.61;98873.03;5021263;28;20060;-76
2023/01/17 12:56:23;;;;;;;5.90;1.67;;;;;;;4.31;76.70;98864.50;5021901;28;20106;-76
2023/01/17 12:58:54;;;;;;;2.03;1.70;;;;;;;4.32;76.90;98868.91;5017336;28;20452;-76
2023/01/17 13:01:29;;;;;;;9.13;1.85;;;;;;;4.26;76.63;98864.28;5022545;28;20087;-76
2023/01/17 13:03:55;;;;;;;4.53;1.88;;;;;;;4.32;75.32;98875.13;5020662;28;20385;-76
2023/01/17 13:06:52;;;;;;;4.45;1.73;;;;;;;4.37;77.25;98869.94;5019980;28;20080;-76
2023/01/17 13:09:22;;;;;;;8.10;2.10;;;;;;;4.33;76.46;98865.97;5033325;28;20476;-76
2023/01/17 13:11:55;;;;;;;8.98;1.83;;;;;;;4.40;76.91;98872.25;5020883;28;20033;-76